createdAt,value
2023-02-13T00:01:20.539Z,40.40
2023-02-13T00:07:31.486Z,38.00
2023-02-13T00:13:42.240Z,35.30
2023-02-13T00:16:48.523Z,42.60
2023-02-13T00:22:59.333Z,34.50
2023-02-13T00:26:10.857Z,28.80
2023-02-13T00:29:17.079Z,22.90
2023-02-13T00:32:23.231Z,20.00
2023-02-13T00:35:29.533Z,20.70
2023-02-13T00:41:41.144Z,23.10
2023-02-13T00:44:47.385Z,21.80
2023-02-13T00:47:53.560Z,26.50
2023-02-13T00:51:00.536Z,29.50
2023-02-13T00:54:07.507Z,25.80
2023-02-13T00:57:13.691Z,24.10
2023-02-13T01:00:21.369Z,26.20
2023-02-13T01:03:28.020Z,24.70
2023-02-13T01:06:34.299Z,22.40
2023-02-13T01:09:40.778Z,22.20
2023-02-13T01:12:47.187Z,22.10
2023-02-13T01:18:58.027Z,19.50
2023-02-13T01:22:04.269Z,20.50
2023-02-13T01:28:15.846Z,19.00
2023-02-13T01:34:26.766Z,18.80
2023-02-13T01:37:33.153Z,19.20
2023-02-13T01:43:55.445Z,26.60
2023-02-13T01:47:01.727Z,19.10
2023-02-13T01:50:12.557Z,19.70
2023-02-13T01:53:23.350Z,21.80
2023-02-13T01:56:34.649Z,18.40
2023-02-13T01:59:48.732Z,20.10
2023-02-13T02:02:59.441Z,18.90
2023-02-13T02:06:06.292Z,22.90
2023-02-13T02:09:16.026Z,22.20
2023-02-13T02:12:27.593Z,19.10
2023-02-13T02:15:33.986Z,16.90
2023-02-13T02:22:01.789Z,19.90
2023-02-13T02:25:27.241Z,21.80
2023-02-13T02:29:15.930Z,17.30
2023-02-13T02:32:40.333Z,18.20
2023-02-13T02:35:53.943Z,15.60
2023-02-13T02:39:09.450Z,17.90
2023-02-13T02:42:28.085Z,16.60
2023-02-13T02:45:41.081Z,21.20
2023-02-13T02:49:12.668Z,19.30
2023-02-13T02:52:26.639Z,19.30
2023-02-13T02:55:38.401Z,18.70
2023-02-13T02:59:06.590Z,18.80
2023-02-13T03:02:42.752Z,17.40
2023-02-13T03:06:09.394Z,19.50
2023-02-13T03:09:37.987Z,19.40
2023-02-13T03:13:08.132Z,18.00
2023-02-13T03:16:32.007Z,17.60
2023-02-13T03:20:11.738Z,18.60
2023-02-13T03:23:24.416Z,19.60
2023-02-13T03:26:50.605Z,19.90
2023-02-13T03:30:09.654Z,18.80
2023-02-13T03:33:28.952Z,17.80
2023-02-13T03:37:02.352Z,17.70
2023-02-13T03:40:14.305Z,20.20
2023-02-13T03:43:23.155Z,18.50
2023-02-13T03:46:32.135Z,18.60
2023-02-13T03:50:00.787Z,17.20
2023-02-13T03:53:10.969Z,17.10
2023-02-13T03:56:38.292Z,16.60
2023-02-13T03:59:45.010Z,18.50
2023-02-13T04:02:59.923Z,19.00
2023-02-13T04:06:10.116Z,21.60
2023-02-13T04:09:18.842Z,19.10
2023-02-13T04:12:33.256Z,18.30
2023-02-13T04:15:43.653Z,15.90
2023-02-13T04:18:53.418Z,16.30
2023-02-13T04:22:02.392Z,13.90
2023-02-13T04:25:09.704Z,15.60
2023-02-13T04:28:16.014Z,17.80
2023-02-13T04:34:27.096Z,22.20
2023-02-13T04:40:38.016Z,22.50
2023-02-13T04:46:48.908Z,23.80
2023-02-13T04:49:55.092Z,24.60
2023-02-13T04:53:01.706Z,25.10
2023-02-13T04:56:08.401Z,26.80
2023-02-13T04:59:14.672Z,28.60
2023-02-13T05:02:21.006Z,25.80
2023-02-13T05:08:31.757Z,29.90
2023-02-13T05:11:37.999Z,28.00
2023-02-13T05:14:44.171Z,27.10
2023-02-13T05:17:50.619Z,29.50
2023-02-13T05:21:14.796Z,28.70
2023-02-13T05:24:21.082Z,29.80
2023-02-13T05:27:27.308Z,27.80
2023-02-13T05:33:38.425Z,29.80
2023-02-13T05:39:49.956Z,28.30
2023-02-13T05:42:57.143Z,27.10
2023-02-13T05:46:08.649Z,27.70
2023-02-13T05:49:16.517Z,30.30
2023-02-13T05:52:22.705Z,32.40
2023-02-13T05:55:28.830Z,31.00
2023-02-13T05:58:35.773Z,30.80
2023-02-13T06:01:42.021Z,32.30
2023-02-13T06:04:48.294Z,30.80
2023-02-13T06:07:54.483Z,31.10
2023-02-13T06:11:01.064Z,30.30
2023-02-13T06:14:07.718Z,29.00
2023-02-13T06:17:13.932Z,29.60
2023-02-13T06:20:20.507Z,28.20
2023-02-13T06:23:26.693Z,30.50
2023-02-13T06:26:32.886Z,29.00
2023-02-13T06:29:39.168Z,28.00
2023-02-13T06:32:47.214Z,26.90
2023-02-13T06:35:54.194Z,28.70
2023-02-13T06:39:00.409Z,29.30
2023-02-13T06:42:06.615Z,26.20
2023-02-13T06:45:13.607Z,23.50
2023-02-13T06:48:19.849Z,26.70
2023-02-13T06:51:26.155Z,26.00
2023-02-13T06:57:53.437Z,23.20
2023-02-13T07:01:00.005Z,23.50
2023-02-13T07:04:06.566Z,23.20
2023-02-13T07:10:17.860Z,20.30
2023-02-13T07:13:24.173Z,21.00
2023-02-13T07:19:35.293Z,18.50
2023-02-13T07:22:41.515Z,18.80
2023-02-13T07:25:47.784Z,18.60
2023-02-13T07:29:09.262Z,18.20
2023-02-13T07:32:17.087Z,18.30
2023-02-13T07:38:28.047Z,18.20
2023-02-13T07:41:34.351Z,19.30
2023-02-13T07:47:45.119Z,20.50
2023-02-13T07:50:51.794Z,18.50
2023-02-13T07:53:58.505Z,18.30
2023-02-13T07:57:05.262Z,17.60
2023-02-13T08:00:13.720Z,18.60
2023-02-13T08:03:19.931Z,17.40
2023-02-13T08:06:26.591Z,17.50
2023-02-13T08:09:50.109Z,18.30
2023-02-13T08:12:56.745Z,16.60
2023-02-13T08:16:03.088Z,16.10
2023-02-13T08:22:13.791Z,18.90
2023-02-13T08:28:25.356Z,19.10
2023-02-13T08:34:36.289Z,15.70
2023-02-13T08:37:42.584Z,17.00
2023-02-13T08:43:55.041Z,15.90
2023-02-13T08:47:04.087Z,14.80
2023-02-13T08:50:12.148Z,15.30
2023-02-13T08:53:18.552Z,16.40
2023-02-13T08:56:24.754Z,14.30
2023-02-13T08:59:30.915Z,16.00
2023-02-13T09:02:37.423Z,16.50
2023-02-13T09:05:43.668Z,14.60
2023-02-13T09:08:49.897Z,15.10
2023-02-13T09:11:58.092Z,15.80
2023-02-13T09:15:05.074Z,16.20
2023-02-13T09:18:11.336Z,17.00
2023-02-13T09:21:18.017Z,15.90
2023-02-13T09:24:24.182Z,18.70
2023-02-13T09:27:30.453Z,16.70
2023-02-13T09:33:41.610Z,16.80
2023-02-13T09:36:47.891Z,13.60
2023-02-13T09:39:54.824Z,16.00
2023-02-13T09:43:09.665Z,13.20
2023-02-13T09:46:20.261Z,13.60
2023-02-13T09:49:32.000Z,12.90
2023-02-13T09:52:39.974Z,14.30
2023-02-13T09:55:53.764Z,16.20
2023-02-13T09:59:04.794Z,15.60
2023-02-13T10:02:27.135Z,16.20
2023-02-13T10:05:49.024Z,15.00
2023-02-13T10:09:07.710Z,16.50
2023-02-13T10:12:29.487Z,17.90
2023-02-13T10:15:44.121Z,14.50
2023-02-13T10:18:54.977Z,14.70
2023-02-13T10:22:06.031Z,15.90
2023-02-13T10:25:18.643Z,14.20
2023-02-13T10:28:33.645Z,13.50
2023-02-13T10:31:40.781Z,12.10
2023-02-13T10:34:48.513Z,14.60
2023-02-13T10:37:58.868Z,12.70
2023-02-13T10:41:26.708Z,13.10
2023-02-13T10:44:50.016Z,12.40
2023-02-13T10:48:07.730Z,14.50
2023-02-13T10:51:20.461Z,12.60
2023-02-13T10:54:47.920Z,12.10
2023-02-13T10:58:09.452Z,13.30
2023-02-13T11:01:23.420Z,15.30
2023-02-13T11:04:30.342Z,13.60
2023-02-13T11:07:39.560Z,12.70
2023-02-13T11:10:45.933Z,12.60
2023-02-13T11:14:11.641Z,15.20
2023-02-13T11:17:20.485Z,14.60
2023-02-13T11:20:33.140Z,13.60
2023-02-13T11:23:43.619Z,14.80
2023-02-13T11:26:54.575Z,13.50
2023-02-13T11:30:03.378Z,14.20
2023-02-13T11:33:25.295Z,13.20
2023-02-13T11:36:33.465Z,13.30
2023-02-13T11:39:40.079Z,11.40
2023-02-13T11:42:49.073Z,12.80
2023-02-13T11:46:07.053Z,13.40
2023-02-13T11:49:20.179Z,14.60
2023-02-13T11:52:30.633Z,13.00
2023-02-13T11:55:38.897Z,12.70
2023-02-13T11:58:45.761Z,12.40
2023-02-13T12:02:05.776Z,12.40
2023-02-13T12:05:22.336Z,13.90
2023-02-13T12:08:29.062Z,13.60
2023-02-13T12:11:43.294Z,11.90
2023-02-13T12:14:50.745Z,13.00
2023-02-13T12:18:07.083Z,14.30
2023-02-13T12:21:29.564Z,13.70
2023-02-13T12:24:48.782Z,14.60
2023-02-13T12:28:04.513Z,13.30
2023-02-13T12:31:43.251Z,14.80
2023-02-13T12:35:20.380Z,15.40
2023-02-13T12:38:47.597Z,13.40
2023-02-13T12:42:05.885Z,12.50
2023-02-13T12:45:34.761Z,13.80
2023-02-13T12:48:50.678Z,14.00
2023-02-13T12:52:10.092Z,16.00
2023-02-13T12:55:36.552Z,15.40
2023-02-13T12:59:05.768Z,14.20
2023-02-13T13:02:51.121Z,15.20
2023-02-13T13:06:20.361Z,16.00
2023-02-13T13:09:45.634Z,15.90
2023-02-13T13:13:00.388Z,13.70
2023-02-13T13:16:16.753Z,16.80
2023-02-13T13:19:32.496Z,17.80
2023-02-13T13:22:46.439Z,16.70
2023-02-13T13:26:00.692Z,17.80
2023-02-13T13:29:13.194Z,14.20
2023-02-13T13:32:22.957Z,15.10
2023-02-13T13:35:30.130Z,14.80
2023-02-13T13:38:44.240Z,28.90
2023-02-13T13:41:58.725Z,67.30
2023-02-13T13:45:34.203Z,79.00
2023-02-13T13:49:00.192Z,21.50
2023-02-13T13:52:28.652Z,63.00
2023-02-13T13:56:09.560Z,58.80
2023-02-13T13:59:41.976Z,19.10
2023-02-13T14:02:51.237Z,18.00
2023-02-13T14:06:07.371Z,27.60
2023-02-13T14:12:50.095Z,24.60
2023-02-13T14:15:56.752Z,21.20
2023-02-13T14:19:03.102Z,24.00
2023-02-13T14:25:38.949Z,20.10
2023-02-13T14:28:57.323Z,26.90
2023-02-13T14:32:16.984Z,18.00
2023-02-13T14:35:28.890Z,18.40
2023-02-13T14:38:36.054Z,17.00
2023-02-13T14:42:03.120Z,18.40
2023-02-13T14:45:17.695Z,19.50
2023-02-13T14:48:29.703Z,25.10
2023-02-13T14:51:41.595Z,19.30
2023-02-13T14:54:51.489Z,21.30
2023-02-13T14:58:13.062Z,41.30
2023-02-13T15:01:27.497Z,39.10
2023-02-13T15:04:42.312Z,84.40
2023-02-13T15:07:53.838Z,51.50
2023-02-13T15:11:00.703Z,61.00
2023-02-13T15:14:21.812Z,58.60
2023-02-13T15:17:31.045Z,48.30
2023-02-13T15:20:39.330Z,131.70
2023-02-13T15:23:51.038Z,54.10
2023-02-13T15:27:08.928Z,52.20
2023-02-13T15:30:25.430Z,25.30
2023-02-13T15:33:37.472Z,23.10
2023-02-13T15:36:50.282Z,23.40
2023-02-13T15:39:56.782Z,20.60
2023-02-13T15:43:03.704Z,17.50
2023-02-13T15:46:20.418Z,23.40
2023-02-13T15:49:28.114Z,29.80
2023-02-13T15:52:38.209Z,32.30
2023-02-13T15:55:56.699Z,28.90
2023-02-13T15:59:04.781Z,35.30
2023-02-13T16:02:16.521Z,35.80
2023-02-13T16:05:38.563Z,27.30
2023-02-13T16:08:52.893Z,55.30
2023-02-13T16:12:04.310Z,28.00
2023-02-13T16:15:19.601Z,20.00
2023-02-13T16:18:26.453Z,32.60
2023-02-13T16:21:35.968Z,35.60
2023-02-13T16:24:45.853Z,31.80
2023-02-13T16:27:53.733Z,20.50
2023-02-13T16:31:02.844Z,19.80
2023-02-13T16:34:25.058Z,20.50
2023-02-13T16:37:34.339Z,18.60
2023-02-13T16:40:43.308Z,18.80
2023-02-13T16:43:51.826Z,19.60
2023-02-13T16:47:07.586Z,18.30
2023-02-13T16:50:18.249Z,18.20
2023-02-13T16:53:24.464Z,17.90
2023-02-13T16:56:37.919Z,18.60
2023-02-13T16:59:54.718Z,18.00
2023-02-13T17:03:00.972Z,18.90
2023-02-13T17:06:08.084Z,19.60
2023-02-13T17:09:14.376Z,18.00
2023-02-13T17:15:27.447Z,18.00
2023-02-13T17:18:33.772Z,17.00
2023-02-13T17:24:44.946Z,16.70
2023-02-13T17:27:52.094Z,16.20
2023-02-13T17:31:00.783Z,16.60
2023-02-13T17:34:07.906Z,18.00
2023-02-13T17:37:19.924Z,19.20
2023-02-13T17:40:29.720Z,15.90
2023-02-13T17:43:36.019Z,15.80
2023-02-13T17:46:42.448Z,17.30
2023-02-13T17:49:49.959Z,17.00
2023-02-13T17:52:56.603Z,21.60
2023-02-13T17:56:02.901Z,19.20
2023-02-13T18:02:16.298Z,18.50
2023-02-13T18:05:23.246Z,20.70
2023-02-13T18:08:29.605Z,21.40
2023-02-13T18:14:40.394Z,21.00
2023-02-13T18:20:58.527Z,23.30
2023-02-13T18:24:05.100Z,22.70
2023-02-13T18:27:12.628Z,21.10
2023-02-13T18:30:21.565Z,18.90
2023-02-13T18:33:27.929Z,19.80
2023-02-13T18:39:39.018Z,16.30
2023-02-13T18:45:49.904Z,17.00
2023-02-13T18:52:01.707Z,16.60
2023-02-13T18:55:09.416Z,15.60
2023-02-13T18:58:15.681Z,15.00
2023-02-13T19:01:23.680Z,15.80
2023-02-13T19:04:30.054Z,14.60
2023-02-13T19:07:36.814Z,15.50
2023-02-13T19:10:43.081Z,15.50
2023-02-13T19:13:49.980Z,18.00
2023-02-13T19:16:56.150Z,16.20
2023-02-13T19:20:02.736Z,18.10
2023-02-13T19:23:08.945Z,17.20
2023-02-13T19:26:17.284Z,17.80
2023-02-13T19:29:23.465Z,35.30
2023-02-13T19:32:29.723Z,42.90
2023-02-13T19:38:41.361Z,21.60
2023-02-13T19:41:47.534Z,21.50
2023-02-13T19:47:58.526Z,25.60
2023-02-13T19:54:14.678Z,26.40
2023-02-13T19:57:21.630Z,28.00
2023-02-13T20:00:27.969Z,27.00
2023-02-13T20:06:40.056Z,39.30
2023-02-13T20:09:46.394Z,27.00
2023-02-13T20:16:00.189Z,24.50
2023-02-13T20:22:16.995Z,23.30
2023-02-13T20:25:23.401Z,22.60
2023-02-13T20:31:36.777Z,26.70
2023-02-13T20:34:58.729Z,34.20
2023-02-13T20:38:06.366Z,24.20
2023-02-13T20:41:14.077Z,51.30
2023-02-13T20:44:22.523Z,49.50
2023-02-13T20:47:28.817Z,32.40
2023-02-13T20:53:40.124Z,28.50
2023-02-13T20:56:47.632Z,32.70
2023-02-13T20:59:53.800Z,30.00
2023-02-13T21:03:34.615Z,32.50
2023-02-13T21:06:42.385Z,24.30
2023-02-13T21:09:48.544Z,20.40
2023-02-13T21:12:54.828Z,31.80
2023-02-13T21:19:17.242Z,34.90
2023-02-13T21:22:23.501Z,22.40
2023-02-13T21:25:29.769Z,25.40
2023-02-13T21:28:36.450Z,35.80
2023-02-13T21:31:47.530Z,24.90
2023-02-13T21:34:55.525Z,24.10
2023-02-13T21:38:01.802Z,26.70
2023-02-13T21:41:09.817Z,29.00
2023-02-13T21:44:16.909Z,29.40
2023-02-13T21:47:23.293Z,37.00
2023-02-13T21:50:29.622Z,32.10
2023-02-13T21:56:42.976Z,65.80
2023-02-13T21:59:49.453Z,53.40
2023-02-13T22:02:55.711Z,32.70
2023-02-13T22:09:08.348Z,27.00
2023-02-13T22:12:14.418Z,27.60
2023-02-13T22:15:21.108Z,26.60
2023-02-13T22:18:27.427Z,26.70
2023-02-13T22:24:38.715Z,29.70
2023-02-13T22:27:49.224Z,24.80
2023-02-13T22:30:55.899Z,27.10
2023-02-13T22:34:04.615Z,27.10
2023-02-13T22:37:12.809Z,26.40
2023-02-13T22:40:19.421Z,29.70
2023-02-13T22:43:25.575Z,27.00
2023-02-13T22:46:33.932Z,27.10
2023-02-13T22:49:40.142Z,30.60
2023-02-13T22:52:46.537Z,29.20
2023-02-13T22:55:52.792Z,24.90
2023-02-13T22:58:59.347Z,36.20
2023-02-13T23:02:06.054Z,30.60
2023-02-13T23:05:12.553Z,28.40
2023-02-13T23:08:18.777Z,28.90
2023-02-13T23:11:44.889Z,32.90
2023-02-13T23:14:51.148Z,29.90
2023-02-13T23:18:18.028Z,26.20
2023-02-13T23:21:25.013Z,27.40
2023-02-13T23:24:32.385Z,30.30
2023-02-13T23:27:39.248Z,30.20
2023-02-13T23:30:45.537Z,27.80
2023-02-13T23:36:56.323Z,26.60
2023-02-13T23:43:07.130Z,24.70
2023-02-13T23:49:18.106Z,25.60
2023-02-13T23:55:28.978Z,26.70
